createdAt,value
2023-06-04T00:02:17.853Z,97632.28
2023-06-04T00:05:05.215Z,97637.25
2023-06-04T00:07:53.273Z,97634.22
2023-06-04T00:10:41.006Z,97625.56
2023-06-04T00:13:28.519Z,97631.75
2023-06-04T00:16:15.437Z,97620.81
2023-06-04T00:19:03.903Z,97629.34
2023-06-04T00:21:51.006Z,97630.41
2023-06-04T00:24:39.707Z,97624.63
2023-06-04T00:27:26.594Z,97619.69
2023-06-04T00:30:13.891Z,97629.84
2023-06-04T00:33:02.836Z,97626.38
2023-06-04T00:35:49.748Z,97629.97
2023-06-04T00:38:36.735Z,97624.06
2023-06-04T00:41:23.658Z,97624.34
2023-06-04T00:44:10.639Z,97621.59
2023-06-04T00:46:57.710Z,97622.44
2023-06-04T00:49:44.628Z,97623.63
2023-06-04T00:52:31.557Z,97623.31
2023-06-04T00:55:19.700Z,97620.28
2023-06-04T00:58:06.626Z,97616.28
2023-06-04T01:00:57.778Z,97615.41
2023-06-04T01:03:50.425Z,97618.41
2023-06-04T01:06:40.633Z,97620.44
2023-06-04T01:09:29.036Z,97621.75
2023-06-04T01:12:16.034Z,97619.44
2023-06-04T01:15:02.998Z,97619.44
2023-06-04T01:17:54.021Z,97614.69
2023-06-04T01:20:47.402Z,97622.59
2023-06-04T01:24:02.088Z,97622.03
2023-06-04T01:26:51.188Z,97619.88
2023-06-04T01:29:38.126Z,97620.72
2023-06-04T01:32:26.232Z,97610.91
2023-06-04T01:35:13.284Z,97621.59
2023-06-04T01:38:00.303Z,97625.34
2023-06-04T01:40:48.142Z,97620.84
2023-06-04T01:43:36.702Z,97608.72
2023-06-04T01:46:25.319Z,97614.78
2023-06-04T01:49:12.292Z,97618.25
2023-06-04T01:51:59.233Z,97619.44
2023-06-04T01:54:46.975Z,97624.19
2023-06-04T01:57:35.181Z,97620.53
2023-06-04T02:00:22.099Z,97619.38
2023-06-04T02:03:09.822Z,97624.28
2023-06-04T02:05:56.821Z,97631.91
2023-06-04T02:08:43.703Z,97632.50
2023-06-04T02:11:30.600Z,97636.13
2023-06-04T02:14:17.542Z,97636.41
2023-06-04T02:17:05.608Z,97628.03
2023-06-04T02:19:52.460Z,97640.56
2023-06-04T02:22:39.345Z,97638.53
2023-06-04T02:25:26.424Z,97639.81
2023-06-04T02:28:14.285Z,97635.63
2023-06-04T02:31:01.129Z,97637.94
2023-06-04T02:33:48.097Z,97641.41
2023-06-04T02:36:35.247Z,97639.81
2023-06-04T02:39:22.248Z,97642.13
2023-06-04T02:42:09.409Z,97642.38
2023-06-04T02:44:56.315Z,97635.88
2023-06-04T02:47:43.332Z,97637.03
2023-06-04T02:50:30.305Z,97636.88
2023-06-04T02:53:17.160Z,97632.72
2023-06-04T02:56:04.159Z,97638.63
2023-06-04T02:58:56.706Z,97644.69
2023-06-04T03:01:44.446Z,97649.75
2023-06-04T03:04:35.292Z,97655.38
2023-06-04T03:07:23.891Z,97649.16
2023-06-04T03:10:11.961Z,97645.13
2023-06-04T03:12:58.871Z,97647.63
2023-06-04T03:15:47.620Z,97656.13
2023-06-04T03:18:34.958Z,97658.75
2023-06-04T03:21:21.960Z,97660.91
2023-06-04T03:24:08.899Z,97665.38
2023-06-04T03:26:55.791Z,97671.06
2023-06-04T03:29:42.716Z,97668.38
2023-06-04T03:32:29.938Z,97665.66
2023-06-04T03:35:17.009Z,97665.84
2023-06-04T03:38:04.104Z,97670.31
2023-06-04T03:40:51.051Z,97665.38
2023-06-04T03:43:37.921Z,97671.41
2023-06-04T03:46:30.589Z,97676.06
2023-06-04T03:49:19.318Z,97682.59
2023-06-04T03:52:06.470Z,97667.06
2023-06-04T03:54:53.349Z,97670.81
2023-06-04T03:57:40.232Z,97677.19
2023-06-04T04:00:27.884Z,97671.25
2023-06-04T04:03:14.831Z,97678.31
2023-06-04T04:06:01.727Z,97676.00
2023-06-04T04:08:49.645Z,97676.88
2023-06-04T04:11:36.558Z,97675.16
2023-06-04T04:14:23.552Z,97679.38
2023-06-04T04:17:10.489Z,97682.28
2023-06-04T04:19:57.452Z,97688.22
2023-06-04T04:22:44.373Z,97697.47
2023-06-04T04:25:33.616Z,97686.78
2023-06-04T04:28:21.110Z,97693.31
2023-06-04T04:31:09.870Z,97689.22
2023-06-04T04:33:57.289Z,97687.50
2023-06-04T04:36:45.256Z,97681.72
2023-06-04T04:39:32.468Z,97677.97
2023-06-04T04:42:21.336Z,97684.19
2023-06-04T04:45:09.083Z,97681.88
2023-06-04T04:47:56.183Z,97685.75
2023-06-04T04:50:43.068Z,97690.06
2023-06-04T04:53:29.986Z,97691.78
2023-06-04T04:56:16.871Z,97689.09
2023-06-04T04:59:03.843Z,97687.59
2023-06-04T05:01:50.765Z,97691.31
2023-06-04T05:04:37.801Z,97701.47
2023-06-04T05:07:26.002Z,97701.97
2023-06-04T05:10:13.891Z,97697.09
2023-06-04T05:13:06.075Z,97696.66
2023-06-04T05:15:55.945Z,97711.53
2023-06-04T05:18:45.599Z,97721.13
2023-06-04T05:21:32.584Z,97724.41
2023-06-04T05:24:19.433Z,97719.50
2023-06-04T05:27:06.316Z,97705.91
2023-06-04T05:29:53.197Z,97708.63
2023-06-04T05:32:42.304Z,97713.78
2023-06-04T05:35:29.325Z,97716.34
2023-06-04T05:38:26.843Z,97716.13
2023-06-04T05:41:13.989Z,97719.00
2023-06-04T05:44:00.875Z,97718.66
2023-06-04T05:46:47.805Z,97722.44
2023-06-04T05:49:35.727Z,97727.28
2023-06-04T05:52:22.577Z,97734.13
2023-06-04T05:55:10.021Z,97732.59
2023-06-04T05:57:56.972Z,97728.41
2023-06-04T06:00:43.977Z,97736.56
2023-06-04T06:03:31.475Z,97729.38
2023-06-04T06:06:19.587Z,97729.78
2023-06-04T06:09:06.902Z,97728.59
2023-06-04T06:11:53.867Z,97735.78
2023-06-04T06:14:41.063Z,97736.56
2023-06-04T06:17:28.069Z,97728.63
2023-06-04T06:20:18.737Z,97733.34
2023-06-04T06:23:09.109Z,97737.81
2023-06-04T06:25:56.610Z,97731.81
2023-06-04T06:28:44.168Z,97740.19
2023-06-04T06:31:31.403Z,97740.97
2023-06-04T06:34:18.428Z,97731.31
2023-06-04T06:37:05.696Z,97733.75
2023-06-04T06:39:52.757Z,97729.38
2023-06-04T06:42:39.623Z,97739.75
2023-06-04T06:45:26.526Z,97737.16
2023-06-04T06:48:13.444Z,97740.81
2023-06-04T06:51:00.338Z,97740.72
2023-06-04T06:53:47.213Z,97746.03
2023-06-04T06:56:34.459Z,97764.91
2023-06-04T06:59:21.686Z,97754.50
2023-06-04T07:02:08.620Z,97761.22
2023-06-04T07:04:55.524Z,97761.31
2023-06-04T07:07:42.676Z,97768.25
2023-06-04T07:10:31.125Z,97764.53
2023-06-04T07:13:18.029Z,97771.75
2023-06-04T07:16:05.004Z,97770.16
2023-06-04T07:18:51.932Z,97773.16
2023-06-04T07:21:38.765Z,97766.91
2023-06-04T07:24:25.730Z,97769.19
2023-06-04T07:27:15.979Z,97761.03
2023-06-04T07:30:02.941Z,97765.97
2023-06-04T07:32:50.137Z,97771.25
2023-06-04T07:35:37.084Z,97782.75
2023-06-04T07:38:26.438Z,97780.72
2023-06-04T07:41:13.428Z,97776.06
2023-06-04T07:44:00.700Z,97781.09
2023-06-04T07:46:47.594Z,97780.88
2023-06-04T07:49:34.481Z,97771.09
2023-06-04T07:52:21.488Z,97777.03
2023-06-04T07:55:09.534Z,97769.13
2023-06-04T07:57:56.507Z,97771.69
2023-06-04T08:00:43.416Z,97769.31
2023-06-04T08:03:30.365Z,97777.81
2023-06-04T08:06:17.517Z,97775.88
2023-06-04T08:09:04.398Z,97782.50
2023-06-04T08:11:51.392Z,97792.25
2023-06-04T08:14:38.324Z,97778.28
2023-06-04T08:17:25.393Z,97779.78
2023-06-04T08:20:12.751Z,97785.00
2023-06-04T08:22:59.610Z,97784.72
2023-06-04T08:25:46.619Z,97784.94
2023-06-04T08:28:33.451Z,97786.81
2023-06-04T08:31:21.251Z,97787.22
2023-06-04T08:34:08.187Z,97797.16
2023-06-04T08:36:55.088Z,97791.84
2023-06-04T08:39:42.272Z,97794.00
2023-06-04T08:42:32.220Z,97792.13
2023-06-04T08:45:21.320Z,97799.66
2023-06-04T08:48:13.909Z,97800.56
2023-06-04T08:51:01.025Z,97798.53
2023-06-04T08:53:51.208Z,97800.25
2023-06-04T08:56:38.170Z,97792.34
2023-06-04T08:59:26.732Z,97803.25
2023-06-04T09:02:16.905Z,97802.63
2023-06-04T09:05:09.999Z,97804.47
2023-06-04T09:08:02.336Z,97811.63
2023-06-04T09:10:52.792Z,97809.06
2023-06-04T09:13:40.969Z,97803.03
2023-06-04T09:16:27.986Z,97814.13
2023-06-04T09:19:16.076Z,97811.63
2023-06-04T09:22:03.921Z,97817.47
2023-06-04T09:24:51.268Z,97812.44
2023-06-04T09:27:40.579Z,97809.25
2023-06-04T09:30:27.493Z,97816.22
2023-06-04T09:33:14.553Z,97808.25
2023-06-04T09:36:01.500Z,97809.25
2023-06-04T09:38:48.889Z,97813.56
2023-06-04T09:41:35.954Z,97813.28
2023-06-04T09:44:23.024Z,97813.41
2023-06-04T09:47:09.879Z,97810.06
2023-06-04T09:49:56.745Z,97806.50
2023-06-04T09:52:43.609Z,97804.09
2023-06-04T09:55:30.552Z,97803.53
2023-06-04T09:58:19.451Z,97795.34
2023-06-04T10:01:07.653Z,97806.63
2023-06-04T10:03:56.030Z,97802.09
2023-06-04T10:06:44.043Z,97807.44
2023-06-04T10:09:33.324Z,97802.81
2023-06-04T10:12:26.801Z,97802.22
2023-06-04T10:15:14.839Z,97803.13
2023-06-04T10:18:03.915Z,97797.78
2023-06-04T10:20:51.315Z,97803.59
2023-06-04T10:23:38.870Z,97794.97
2023-06-04T10:26:26.954Z,97795.75
2023-06-04T10:29:15.536Z,97795.41
2023-06-04T10:32:02.543Z,97799.75
2023-06-04T10:34:50.661Z,97791.06
2023-06-04T10:37:37.720Z,97791.44
2023-06-04T10:40:33.845Z,97788.25
2023-06-04T10:43:21.690Z,97795.44
2023-06-04T10:46:16.596Z,97788.75
2023-06-04T10:49:03.501Z,97786.78
2023-06-04T10:51:52.292Z,97783.56
2023-06-04T10:54:40.382Z,97784.47
2023-06-04T10:57:27.256Z,97789.78
2023-06-04T11:00:15.612Z,97790.78
2023-06-04T11:03:02.739Z,97787.16
2023-06-04T11:05:51.510Z,97788.06
2023-06-04T11:08:41.560Z,97786.28
2023-06-04T11:11:28.449Z,97781.56
2023-06-04T11:14:18.862Z,97781.75
2023-06-04T11:17:13.320Z,97786.16
2023-06-04T11:20:01.479Z,97785.59
2023-06-04T11:22:53.271Z,97786.53
2023-06-04T11:25:40.570Z,97787.03
2023-06-04T11:28:28.177Z,97785.75
2023-06-04T11:31:15.147Z,97779.13
2023-06-04T11:34:02.190Z,97771.63
2023-06-04T11:36:50.756Z,97770.75
2023-06-04T11:39:40.588Z,97772.75
2023-06-04T11:42:30.537Z,97771.22
2023-06-04T11:45:21.910Z,97766.63
2023-06-04T11:48:12.218Z,97763.84
2023-06-04T11:51:00.104Z,97759.16
2023-06-04T11:53:47.039Z,97761.53
2023-06-04T11:56:33.958Z,97756.78
2023-06-04T11:59:21.265Z,97751.19
2023-06-04T12:02:09.122Z,97747.28
2023-06-04T12:04:56.110Z,97752.94
2023-06-04T12:07:43.009Z,97748.16
2023-06-04T12:10:29.903Z,97745.06
2023-06-04T12:13:16.860Z,97736.22
2023-06-04T12:16:03.769Z,97744.81
2023-06-04T12:18:52.038Z,97738.88
2023-06-04T12:21:40.719Z,97741.94
2023-06-04T12:24:27.627Z,97744.03
2023-06-04T12:27:14.575Z,97739.72
2023-06-04T12:30:04.016Z,97734.09
2023-06-04T12:32:51.928Z,97728.66
2023-06-04T12:35:38.972Z,97728.53
2023-06-04T12:38:25.959Z,97724.81
2023-06-04T12:41:12.888Z,97724.56
2023-06-04T12:44:00.574Z,97721.28
2023-06-04T12:46:48.248Z,97724.84
2023-06-04T12:49:35.604Z,97727.44
2023-06-04T12:52:22.474Z,97721.59
2023-06-04T12:55:10.184Z,97727.16
2023-06-04T12:57:57.099Z,97726.22
2023-06-04T13:00:44.028Z,97730.84
2023-06-04T13:03:31.697Z,97726.47
2023-06-04T13:06:18.735Z,97724.16
2023-06-04T13:09:12.831Z,97724.47
2023-06-04T13:11:59.745Z,97723.53
2023-06-04T13:14:46.605Z,97723.56
2023-06-04T13:17:34.395Z,97715.56
2023-06-04T13:20:21.402Z,97719.84
2023-06-04T13:23:08.729Z,97711.50
2023-06-04T13:25:55.631Z,97713.84
2023-06-04T13:28:42.486Z,97711.09
2023-06-04T13:31:29.437Z,97715.81
2023-06-04T13:37:12.111Z,97712.25
2023-06-04T13:39:59.500Z,97704.59
2023-06-04T13:42:47.101Z,97700.47
2023-06-04T13:45:34.247Z,97701.06
2023-06-04T13:48:21.719Z,97697.09
2023-06-04T13:51:08.885Z,97696.44
2023-06-04T13:53:56.014Z,97692.03
2023-06-04T13:56:50.511Z,97694.78
2023-06-04T13:59:37.337Z,97699.09
2023-06-04T14:02:24.287Z,97696.28
2023-06-04T14:05:11.311Z,97700.28
2023-06-04T14:07:59.187Z,97700.06
2023-06-04T14:10:46.170Z,97695.47
2023-06-04T14:13:33.031Z,97700.22
2023-06-04T14:16:19.969Z,97693.53
2023-06-04T14:19:10.000Z,97695.03
2023-06-04T14:21:56.893Z,97696.53
2023-06-04T14:24:43.786Z,97698.72
2023-06-04T14:27:31.012Z,97685.28
2023-06-04T14:30:17.908Z,97692.00
2023-06-04T14:33:04.931Z,97693.59
2023-06-04T14:35:51.898Z,97679.53
2023-06-04T14:38:38.773Z,97682.38
2023-06-04T14:41:28.221Z,97681.06
2023-06-04T14:44:15.082Z,97675.28
2023-06-04T14:47:01.929Z,97670.84
2023-06-04T14:49:48.875Z,97670.38
2023-06-04T14:52:35.737Z,97664.72
2023-06-04T14:55:22.739Z,97673.91
2023-06-04T14:58:09.623Z,97668.41
2023-06-04T15:01:01.633Z,97658.69
2023-06-04T15:03:48.985Z,97654.03
2023-06-04T15:06:36.279Z,97664.84
2023-06-04T15:09:23.209Z,97656.47
2023-06-04T15:12:10.121Z,97659.41
2023-06-04T15:14:57.011Z,97659.88
2023-06-04T15:17:46.290Z,97659.41
2023-06-04T15:20:34.931Z,97660.19
2023-06-04T15:23:21.846Z,97652.03
2023-06-04T15:26:08.738Z,97649.09
2023-06-04T15:28:57.354Z,97647.28
2023-06-04T15:31:44.598Z,97642.03
2023-06-04T15:34:31.466Z,97639.22
2023-06-04T15:37:18.423Z,97646.94
2023-06-04T15:40:08.520Z,97641.91
2023-06-04T15:42:55.483Z,97650.72
2023-06-04T15:45:42.504Z,97658.06
2023-06-04T15:48:30.381Z,97656.06
2023-06-04T15:51:17.271Z,97649.09
2023-06-04T15:54:05.503Z,97640.84
2023-06-04T15:56:52.404Z,97644.25
2023-06-04T15:59:39.334Z,97645.88
2023-06-04T16:02:27.539Z,97644.38
2023-06-04T16:05:14.550Z,97640.81
2023-06-04T16:08:01.605Z,97650.81
2023-06-04T16:10:48.644Z,97645.00
2023-06-04T16:13:35.625Z,97645.22
2023-06-04T16:16:22.645Z,97650.75
2023-06-04T16:19:09.617Z,97657.47
2023-06-04T16:21:56.901Z,97657.63
2023-06-04T16:24:43.711Z,97657.06
2023-06-04T16:27:30.658Z,97659.47
2023-06-04T16:30:17.503Z,97662.00
2023-06-04T16:33:06.867Z,97658.66
2023-06-04T16:35:53.782Z,97655.50
2023-06-04T16:38:40.827Z,97660.53
2023-06-04T16:41:27.936Z,97657.81
2023-06-04T16:44:15.117Z,97651.44
2023-06-04T16:47:02.008Z,97652.41
2023-06-04T16:49:49.358Z,97652.72
2023-06-04T16:52:36.800Z,97653.56
2023-06-04T16:55:32.471Z,97657.94
2023-06-04T16:58:19.344Z,97652.22
2023-06-04T17:01:09.492Z,97659.38
2023-06-04T17:03:56.526Z,97651.88
2023-06-04T17:06:46.429Z,97657.56
2023-06-04T17:09:33.736Z,97655.50
2023-06-04T17:12:20.725Z,97652.81
2023-06-04T17:15:08.032Z,97646.22
2023-06-04T17:18:01.479Z,97653.47
2023-06-04T17:20:48.907Z,97651.06
2023-06-04T17:23:37.627Z,97645.19
2023-06-04T17:26:24.994Z,97653.41
2023-06-04T17:29:11.917Z,97659.69
2023-06-04T17:31:58.768Z,97655.13
2023-06-04T17:34:50.553Z,97654.84
2023-06-04T17:37:37.890Z,97667.38
2023-06-04T17:40:27.300Z,97659.41
2023-06-04T17:43:14.657Z,97668.22
2023-06-04T17:46:01.661Z,97665.69
2023-06-04T17:48:48.575Z,97666.50
2023-06-04T17:51:35.535Z,97669.53
2023-06-04T17:54:22.410Z,97668.38
2023-06-04T17:57:09.337Z,97665.50
2023-06-04T17:59:59.062Z,97677.50
2023-06-04T18:02:46.733Z,97671.13
2023-06-04T18:05:33.676Z,97681.34
2023-06-04T18:08:20.770Z,97675.91
2023-06-04T18:11:07.955Z,97675.63
2023-06-04T18:13:54.972Z,97674.09
2023-06-04T18:16:41.942Z,97673.78
2023-06-04T18:19:28.946Z,97669.00
2023-06-04T18:22:16.154Z,97681.75
2023-06-04T18:25:03.302Z,97669.19
2023-06-04T18:27:50.317Z,97666.81
2023-06-04T18:30:37.323Z,97670.53
2023-06-04T18:33:25.922Z,97673.94
2023-06-04T18:36:12.821Z,97675.38
2023-06-04T18:38:59.948Z,97674.56
2023-06-04T18:41:49.010Z,97675.81
2023-06-04T18:44:36.280Z,97685.06
2023-06-04T18:47:23.663Z,97690.63
2023-06-04T18:50:10.903Z,97694.03
2023-06-04T18:52:59.079Z,97682.25
2023-06-04T18:55:47.297Z,97693.44
2023-06-04T18:58:34.296Z,97691.59
2023-06-04T19:01:21.202Z,97699.72
2023-06-04T19:04:08.857Z,97695.09
2023-06-04T19:06:55.810Z,97703.09
2023-06-04T19:09:43.028Z,97698.84
2023-06-04T19:12:29.938Z,97696.59
2023-06-04T19:15:18.147Z,97699.78
2023-06-04T19:18:06.222Z,97700.28
2023-06-04T19:20:53.163Z,97720.91
2023-06-04T19:23:40.039Z,97711.69
2023-06-04T19:26:27.139Z,97715.56
2023-06-04T19:29:14.005Z,97720.16
2023-06-04T19:32:01.171Z,97715.72
2023-06-04T19:34:49.974Z,97718.78
2023-06-04T19:37:37.033Z,97722.78
2023-06-04T19:40:24.014Z,97735.88
2023-06-04T19:43:11.179Z,97724.59
2023-06-04T19:46:02.570Z,97734.47
2023-06-04T19:48:49.539Z,97733.97
2023-06-04T19:51:37.426Z,97732.97
2023-06-04T19:54:24.389Z,97728.94
2023-06-04T19:57:11.508Z,97731.31
2023-06-04T19:59:58.511Z,97728.53
2023-06-04T20:02:45.527Z,97731.09
2023-06-04T20:05:32.433Z,97731.31
2023-06-04T20:08:19.338Z,97729.75
2023-06-04T20:11:06.618Z,97722.91
2023-06-04T20:13:53.490Z,97734.47
2023-06-04T20:16:40.907Z,97734.13
2023-06-04T20:19:27.907Z,97736.75
2023-06-04T20:22:14.828Z,97745.78
2023-06-04T20:25:13.938Z,97732.91
2023-06-04T20:28:01.026Z,97726.75
2023-06-04T20:30:47.932Z,97733.50
2023-06-04T20:33:34.947Z,97736.19
2023-06-04T20:36:22.758Z,97741.94
2023-06-04T20:39:09.844Z,97733.53
2023-06-04T20:41:57.267Z,97742.44
2023-06-04T20:44:44.243Z,97736.31
2023-06-04T20:47:31.267Z,97734.47
2023-06-04T20:50:18.159Z,97731.63
2023-06-04T20:53:05.044Z,97734.75
2023-06-04T20:55:52.004Z,97732.16
2023-06-04T20:58:39.029Z,97738.66
2023-06-04T21:01:26.214Z,97729.81
2023-06-04T21:04:13.237Z,97729.44
2023-06-04T21:07:00.247Z,97724.53
2023-06-04T21:09:47.188Z,97724.63
2023-06-04T21:12:34.064Z,97722.75
2023-06-04T21:15:20.916Z,97727.44
2023-06-04T21:18:07.913Z,97721.56
2023-06-04T21:20:55.242Z,97728.78
2023-06-04T21:23:42.198Z,97715.94
2023-06-04T21:26:29.612Z,97721.69
2023-06-04T21:29:16.588Z,97715.44
2023-06-04T21:32:03.622Z,97715.22
2023-06-04T21:34:50.767Z,97723.41
2023-06-04T21:37:37.664Z,97721.59
2023-06-04T21:40:24.850Z,97725.91
2023-06-04T21:43:11.873Z,97714.16
2023-06-04T21:45:59.235Z,97711.88
2023-06-04T21:48:46.519Z,97717.50
2023-06-04T21:51:33.456Z,97715.22
2023-06-04T21:54:20.371Z,97715.84
2023-06-04T21:57:07.269Z,97718.97
2023-06-04T21:59:54.167Z,97715.38
2023-06-04T22:02:41.180Z,97715.47
2023-06-04T22:05:28.155Z,97716.06
2023-06-04T22:08:15.063Z,97716.53
2023-06-04T22:11:01.987Z,97724.09
2023-06-04T22:13:49.051Z,97716.44
2023-06-04T22:16:35.949Z,97722.69
2023-06-04T22:19:22.890Z,97708.75
2023-06-04T22:22:09.833Z,97708.50
2023-06-04T22:24:56.844Z,97714.75
2023-06-04T22:27:43.719Z,97707.66
2023-06-04T22:30:30.687Z,97709.94
2023-06-04T22:33:17.694Z,97703.09
2023-06-04T22:36:04.736Z,97709.94
2023-06-04T22:38:51.769Z,97706.78
2023-06-04T22:41:38.807Z,97695.50
2023-06-04T22:44:25.676Z,97700.56
2023-06-04T22:47:12.555Z,97696.38
2023-06-04T22:49:59.430Z,97698.28
2023-06-04T22:52:46.306Z,97704.00
2023-06-04T22:55:33.285Z,97698.09
2023-06-04T22:58:20.519Z,97696.44
2023-06-04T23:01:07.579Z,97691.56
2023-06-04T23:03:54.751Z,97690.94
2023-06-04T23:06:41.757Z,97694.91
2023-06-04T23:09:28.631Z,97703.56
2023-06-04T23:12:15.759Z,97694.91
2023-06-04T23:15:03.245Z,97692.63
2023-06-04T23:17:50.843Z,97691.56
2023-06-04T23:20:37.853Z,97682.69
2023-06-04T23:23:24.774Z,97685.44
2023-06-04T23:26:11.675Z,97682.34
2023-06-04T23:28:58.548Z,97689.28
2023-06-04T23:31:46.019Z,97685.09
2023-06-04T23:34:32.938Z,97683.41
2023-06-04T23:37:19.848Z,97681.72
2023-06-04T23:40:07.731Z,97682.44
2023-06-04T23:42:54.597Z,97678.81
2023-06-04T23:45:41.441Z,97681.00
2023-06-04T23:48:28.324Z,97686.38
2023-06-04T23:51:15.242Z,97679.66
2023-06-04T23:54:02.142Z,97681.22
2023-06-04T23:56:50.805Z,97684.69
2023-06-04T23:59:37.717Z,97689.69
